Portada
METAR-TAF:

METAR-TAF

Aeroports :

Washington Municipal Airport

Washington, Iowa, Estats Units d'Amèrica

latitud: 41-17N, longitud: 091-40W, altitud: 230 m

Observació

L'informe es va fer fa 17 minuts, a les 13:55 UTC
Vent calma
Temperatura 1°C
Humitat 93%
Pressió 1011 hPa
Visibilitat: 16.1 km
Cel cobert a una alçada de 1300 ft

METAR: KAWG 181355Z AUTO 00000KT 10SM OVC013 01/M00 A2984 RMK AO2

Hora: 08:12 (14:12 UTC)


TAF: manca

Observacions i pronòstics meteorològics de més de 4000 aeroports (METAR i TAF).

Les estacions disponibles són els punts grocs i vermells al mapa.

Posi el ratolí al punt desitjat per veure el nom de l'estació.

Feu clic per veure les observacions i els pronòstics meteorològics.

Per canviar el mapa: feu clic els botons verds amb una creu de color negre per apropar; al botó verd amb un guió per allunyar la imatge; o en les fletxes verdes per a mapes adjacents.


METAR-TAF: